Hauptseite
METAR-TAF:

METAR-TAF

Flughäfen :

Sabzevar, Iran

Breite: 36-13N, Länge: 057-40E, Höhe: 941 m

Beobachtung

Neuester Wetterbericht von vor 2 Stunden und 48 Minuten, um 15:00 UTC
Wind 12 kt aus Ost/Nordost
Temperatur 35°C
Luftfeuchtigkeit 19%
Luftdruck 1015 hPa
Sichtweite 10 km oder mehr
Aufgelockert bewölkt in der Höhe von 3500 ft

METAR: OIMS 181500Z 06012KT 9999 SCT035 35/08 Q1015

Zeit: 22:18 (17:48 UTC)


TAF: fehlend

Wetterbeobachtungen und Prognosen von mehr als 4000 Flughäfen (METAR und TAF Bericht).

Die verfügbaren Stationen werden durch gelbe und rote Markierungen auf der Karte dargestellt.

Führen Sie die Maus auf sie, um den Namen der Station zu sehen.

Darauf klicken, um die Beobachtung von Wetterbeobachtungen und Prognosen zu sehen.

Um die Karte zu ändern : klicken Sie auf den grünen Tasten mit einem schwarzen Kreuz Zum Vergrößern, auf den grünen Button mit einem Gedankenstrich zu verkleinern, oder auf die grünen Pfeile für benachbarte Karten.


METAR-TAF: